Cincinnati, Ohio
Traffic Map
Current Weather Conditions
Cincinnati, Ohio
Overcast Light Rain
Overcast

Feels Like: 6°
Wind Chill: Ceiling: 6000
Heat Index: Visibility: 10mi
Dew Point: Wind: 0mph
Humidity: 89% Direction: ° ()
Pressure: 30.03in Gusts: 0mph
Raw Report DataKLUK 310753Z AUTO 00000KT 10SM -RA SCT042 OVC060 06/04 A3003 RMK AO2 SLP171 P0000 T00610044
Traffic Incident Summary
Active as of:
Severity:
Category:
InformationThere was an issue retrieving the traffic information for this location. Please try a different location or try again shortly.
Advertisements
Track Severe Weather on mobile